Time;durP1;ratioP1;P1;durP2;ratioP2;P2;SDS_P1;SDS_P2;PMS_P1;PMS_P2;Temp;Humidity;BMP_temperature;BMP_pressure;BME280_temperature;BME280_humidity;BME280_pressure;Samples;Min_cycle;Max_cycle;Signal;HPM_P1;HPM_P2
2022/01/04 00:01:48;;;;;;;1.90;1.27;;;12.00;99.90;;;;;;5016581;28;20449;-89
2022/01/04 00:07:37;;;;;;;1.80;1.43;;;12.00;99.90;;;;;;5017777;28;20438;-93
2022/01/04 00:10:05;;;;;;;1.10;1.00;;;12.00;99.90;;;;;;5015234;28;20545;-89
2022/01/04 00:15:17;;;;;;;1.67;1.20;;;12.00;99.90;;;;;;5013197;28;20450;-90
2022/01/04 00:17:44;;;;;;;1.67;0.90;;;12.00;99.90;;;;;;5014061;28;20502;-90
2022/01/04 00:20:12;;;;;;;3.00;1.30;;;12.00;99.90;;;;;;4999524;28;20562;-90
2022/01/04 00:22:39;;;;;;;1.47;1.00;;;12.00;99.90;;;;;;4998914;28;20482;-90
2022/01/04 00:25:07;;;;;;;3.10;1.53;;;12.00;99.90;;;;;;5005994;28;20534;-90
2022/01/04 00:27:35;;;;;;;2.13;1.23;;;12.00;99.90;;;;;;4998202;28;20542;-89
2022/01/04 00:30:03;;;;;;;3.03;2.33;;;12.00;99.90;;;;;;4997779;28;20454;-90
2022/01/04 00:32:30;;;;;;;1.30;1.00;;;11.90;99.90;;;;;;5003192;28;20459;-90
2022/01/04 00:34:57;;;;;;;1.67;1.40;;;11.90;99.90;;;;;;5007306;28;20554;-89
2022/01/04 00:37:24;;;;;;;3.03;1.20;;;11.90;99.90;;;;;;5000975;28;20461;-90
2022/01/04 00:39:52;;;;;;;5.33;1.07;;;11.90;99.90;;;;;;5000196;28;20454;-89
2022/01/04 00:42:19;;;;;;;1.50;1.03;;;11.90;99.90;;;;;;5000774;28;20459;-90
2022/01/04 00:44:47;;;;;;;2.10;1.33;;;11.80;99.90;;;;;;5000166;28;20462;-90
2022/01/04 00:47:15;;;;;;;2.27;1.27;;;11.90;99.90;;;;;;4999762;28;20498;-90
2022/01/04 00:49:41;;;;;;;2.30;1.00;;;11.90;99.90;;;;;;5008696;28;20616;-89
2022/01/04 00:52:14;;;;;;;3.50;1.40;;;11.90;99.90;;;;;;5019440;28;20483;-90
2022/01/04 00:54:41;;;;;;;2.23;1.10;;;11.90;99.90;;;;;;5019819;28;20463;-90
2022/01/04 00:57:09;;;;;;;2.03;1.20;;;11.90;99.90;;;;;;5018964;28;20508;-91
2022/01/04 00:59:36;;;;;;;2.00;1.10;;;11.80;99.90;;;;;;5019064;28;20460;-90
2022/01/04 01:02:06;;;;;;;1.20;0.93;;;11.80;99.90;;;;;;5019345;28;20446;-90
2022/01/04 01:04:33;;;;;;;1.33;0.87;;;11.80;99.90;;;;;;5019087;28;20461;-89
2022/01/04 01:07:00;;;;;;;2.17;1.20;;;11.80;99.90;;;;;;5032753;28;20598;-90
2022/01/04 01:09:31;;;;;;;5.03;1.50;;;11.80;99.90;;;;;;5031257;28;20533;-89
2022/01/04 01:11:58;;;;;;;3.20;1.50;;;11.80;99.90;;;;;;5024380;28;20844;-89
2022/01/04 01:14:25;;;;;;;1.70;1.20;;;11.80;99.90;;;;;;5025035;28;20455;-90
2022/01/04 01:16:52;;;;;;;1.97;1.00;;;11.70;99.90;;;;;;5033696;28;20470;-89
2022/01/04 01:19:21;;;;;;;2.70;1.40;;;11.70;99.90;;;;;;5039537;28;20462;-90
2022/01/04 01:21:48;;;;;;;1.93;1.00;;;11.70;99.90;;;;;;5040703;28;20466;-92
2022/01/04 01:24:15;;;;;;;2.60;1.10;;;11.70;99.90;;;;;;5041318;28;20460;-93
2022/01/04 01:26:42;;;;;;;4.50;1.57;;;11.60;99.90;;;;;;5039703;28;20482;-90
2022/01/04 01:29:09;;;;;;;4.00;1.40;;;11.60;99.90;;;;;;5039799;28;20454;-93
2022/01/04 01:31:36;;;;;;;1.47;1.10;;;11.60;99.90;;;;;;5040606;28;20465;-93
2022/01/04 01:34:02;;;;;;;1.40;1.20;;;11.60;99.90;;;;;;5031532;28;20579;-90
2022/01/04 01:36:31;;;;;;;3.63;1.50;;;11.60;99.90;;;;;;5022843;28;20473;-91
2022/01/04 01:38:58;;;;;;;2.30;1.70;;;11.60;99.90;;;;;;5021281;28;20457;-90
2022/01/04 01:41:25;;;;;;;1.70;1.17;;;11.60;99.90;;;;;;5030958;28;20441;-93
2022/01/04 01:43:52;;;;;;;1.43;1.03;;;11.50;99.90;;;;;;5021148;28;20460;-90
2022/01/04 01:46:19;;;;;;;8.97;2.10;;;11.50;99.90;;;;;;5017970;28;20478;-90
2022/01/04 01:48:46;;;;;;;4.43;1.73;;;11.50;99.90;;;;;;5018755;28;20463;-90
2022/01/04 01:51:16;;;;;;;1.40;1.30;;;11.50;99.90;;;;;;5018861;28;20498;-90
2022/01/04 01:53:44;;;;;;;1.40;1.30;;;11.50;99.90;;;;;;5019862;28;20956;-90
2022/01/04 01:56:11;;;;;;;4.90;1.20;;;11.40;99.90;;;;;;5018786;28;20569;-91
2022/01/04 01:58:38;;;;;;;2.33;1.50;;;11.40;99.90;;;;;;5019221;28;20458;-90
2022/01/04 02:01:05;;;;;;;1.20;1.10;;;11.40;99.90;;;;;;5023325;28;20453;-91
2022/01/04 02:03:32;;;;;;;4.30;1.60;;;11.30;99.90;;;;;;5025537;28;20973;-90
2022/01/04 02:06:00;;;;;;;1.47;1.37;;;11.30;99.90;;;;;;5019003;28;20481;-90
2022/01/04 02:08:27;;;;;;;1.80;1.43;;;11.30;99.90;;;;;;5018688;28;20956;-89
2022/01/04 02:10:57;;;;;;;2.97;1.70;;;11.30;99.90;;;;;;5018503;28;20982;-90
2022/01/04 02:13:24;;;;;;;6.17;1.40;;;11.20;99.90;;;;;;5018935;28;20451;-90
2022/01/04 02:15:51;;;;;;;1.50;1.40;;;11.20;99.90;;;;;;5018905;28;20482;-92
2022/01/04 02:18:18;;;;;;;1.97;1.30;;;11.20;99.90;;;;;;5030247;28;20440;-90
2022/01/04 02:20:47;;;;;;;2.40;1.57;;;11.20;99.90;;;;;;5024846;28;20459;-90
2022/01/04 02:23:14;;;;;;;2.10;1.60;;;11.30;99.90;;;;;;5018312;28;20460;-91
2022/01/04 02:25:41;;;;;;;1.37;1.27;;;11.30;99.90;;;;;;5025656;28;20474;-90
2022/01/04 02:28:08;;;;;;;1.93;1.77;;;11.30;99.90;;;;;;5020362;28;20455;-91
2022/01/04 02:30:35;;;;;;;2.20;1.60;;;11.40;99.90;;;;;;5018539;28;20458;-90
2022/01/04 02:33:02;;;;;;;2.80;1.60;;;11.40;99.90;;;;;;5025497;28;20458;-90
2022/01/04 02:35:32;;;;;;;3.43;1.70;;;11.40;99.90;;;;;;5039634;28;20523;-94
2022/01/04 02:38:01;;;;;;;3.50;1.67;;;11.40;99.90;;;;;;5027723;28;20454;-90
2022/01/04 02:40:29;;;;;;;3.10;1.60;;;11.40;99.90;;;;;;5033025;28;20458;-91
2022/01/04 02:42:56;;;;;;;1.97;1.60;;;11.40;99.90;;;;;;5033661;28;20466;-92
2022/01/04 02:45:23;;;;;;;2.60;1.23;;;11.40;99.90;;;;;;5019127;28;21023;-91
2022/01/04 02:47:50;;;;;;;2.13;1.57;;;11.50;99.90;;;;;;5018186;28;20458;-91
2022/01/04 02:50:17;;;;;;;2.13;1.77;;;11.50;99.90;;;;;;5018392;28;20467;-89
2022/01/04 02:52:44;;;;;;;2.10;1.90;;;11.50;99.90;;;;;;5019481;28;20486;-91
2022/01/04 02:55:14;;;;;;;2.83;1.90;;;11.60;99.90;;;;;;5018936;28;20819;-90
2022/01/04 02:57:41;;;;;;;2.70;1.90;;;11.60;99.90;;;;;;5021843;28;20452;-90
2022/01/04 03:00:11;;;;;;;3.70;2.07;;;11.60;99.90;;;;;;5020285;28;20550;-90
2022/01/04 03:02:38;;;;;;;3.03;2.30;;;11.60;99.90;;;;;;5016374;28;20533;-91
2022/01/04 03:05:06;;;;;;;2.20;2.00;;;11.60;99.90;;;;;;5019505;28;20446;-91
2022/01/04 03:07:34;;;;;;;2.90;2.07;;;11.60;99.90;;;;;;5038621;28;20504;-91
2022/01/04 03:10:01;;;;;;;2.57;1.97;;;11.70;99.90;;;;;;5027012;28;20451;-91
2022/01/04 03:12:30;;;;;;;2.30;1.50;;;11.70;99.90;;;;;;5038847;28;20468;-94
2022/01/04 03:14:57;;;;;;;4.33;2.53;;;11.70;99.90;;;;;;5037207;28;20466;-92
2022/01/04 03:17:23;;;;;;;2.73;2.00;;;11.70;99.90;;;;;;5021800;28;21044;-91
2022/01/04 03:19:50;;;;;;;2.17;1.77;;;11.60;99.90;;;;;;5019335;28;20442;-90
2022/01/04 03:22:17;;;;;;;1.80;1.67;;;11.70;99.90;;;;;;5021086;28;20450;-91
2022/01/04 03:24:44;;;;;;;1.90;1.80;;;11.70;99.90;;;;;;5023948;28;20458;-90
2022/01/04 03:27:12;;;;;;;2.90;2.10;;;11.60;99.90;;;;;;5025808;28;20484;-94
2022/01/04 03:29:41;;;;;;;2.57;1.60;;;11.60;99.90;;;;;;5019650;28;20446;-90
2022/01/04 03:32:09;;;;;;;1.63;1.53;;;11.60;99.90;;;;;;5017780;28;20565;-90
2022/01/04 03:34:36;;;;;;;3.70;2.10;;;11.50;99.90;;;;;;5017186;28;20454;-91
2022/01/04 03:37:04;;;;;;;2.30;2.10;;;11.50;99.90;;;;;;5016540;28;20482;-91
2022/01/04 03:39:32;;;;;;;2.57;2.37;;;11.50;99.90;;;;;;5018467;28;20485;-91
2022/01/04 03:41:59;;;;;;;2.27;1.80;;;11.50;99.90;;;;;;5016836;28;20446;-90
2022/01/04 03:44:26;;;;;;;2.00;1.80;;;11.60;99.90;;;;;;5017388;28;20540;-90
2022/01/04 03:46:56;;;;;;;1.80;1.70;;;11.60;99.90;;;;;;5022599;28;20501;-91
2022/01/04 03:49:24;;;;;;;1.90;1.63;;;11.50;99.90;;;;;;5015582;28;20970;-91
2022/01/04 03:51:51;;;;;;;3.77;2.73;;;11.40;99.90;;;;;;5015962;28;20834;-91
2022/01/04 03:54:19;;;;;;;2.30;1.70;;;11.40;99.90;;;;;;5015050;28;20522;-91
2022/01/04 03:56:46;;;;;;;2.33;1.70;;;11.40;99.90;;;;;;5015827;28;20545;-90
2022/01/04 03:59:14;;;;;;;2.20;2.00;;;11.30;99.90;;;;;;5016272;28;20938;-91
2022/01/04 04:01:41;;;;;;;3.60;2.13;;;11.20;99.90;;;;;;5017628;28;20454;-88
2022/01/04 04:04:09;;;;;;;3.00;2.07;;;11.20;99.90;;;;;;5017587;28;21041;-91
2022/01/04 04:06:36;;;;;;;2.13;1.70;;;11.30;99.90;;;;;;5016509;28;21012;-90
2022/01/04 04:09:03;;;;;;;1.93;1.73;;;11.30;99.90;;;;;;5015828;28;20511;-91
2022/01/04 04:11:30;;;;;;;3.03;2.20;;;11.30;99.90;;;;;;5016038;28;20567;-90
2022/01/04 04:13:57;;;;;;;2.33;1.90;;;11.30;99.90;;;;;;5017781;28;20464;-90
2022/01/04 04:16:24;;;;;;;1.60;1.50;;;11.30;99.90;;;;;;5016748;28;20469;-90
2022/01/04 04:18:51;;;;;;;3.13;2.00;;;11.30;99.90;;;;;;5034757;28;20460;-93
2022/01/04 04:21:19;;;;;;;1.97;1.77;;;11.30;99.90;;;;;;5037744;28;20482;-91
2022/01/04 04:23:46;;;;;;;2.03;1.80;;;11.30;99.90;;;;;;5032713;28;20465;-91
2022/01/04 04:26:14;;;;;;;2.10;1.70;;;11.40;99.90;;;;;;5036079;28;20525;-93
2022/01/04 04:28:40;;;;;;;2.80;1.53;;;11.40;99.90;;;;;;5027693;28;20454;-92
2022/01/04 04:31:08;;;;;;;3.50;1.53;;;11.40;99.90;;;;;;5019157;28;20537;-91
2022/01/04 04:33:35;;;;;;;1.37;1.23;;;11.40;99.90;;;;;;5027011;28;20545;-88
2022/01/04 04:36:02;;;;;;;1.47;1.37;;;11.40;99.90;;;;;;5034165;28;20522;-91
2022/01/04 04:38:30;;;;;;;1.60;1.23;;;11.60;99.90;;;;;;5018988;28;20456;-90
2022/01/04 04:40:57;;;;;;;2.13;1.23;;;11.70;99.90;;;;;;5016863;28;20541;-90
2022/01/04 04:43:24;;;;;;;1.30;1.00;;;11.60;99.90;;;;;;5017640;28;20477;-90
2022/01/04 04:45:51;;;;;;;6.70;1.50;;;11.70;99.90;;;;;;5019912;28;20547;-92
2022/01/04 04:48:18;;;;;;;1.33;1.23;;;11.60;99.90;;;;;;5016823;28;20462;-89
2022/01/04 04:50:45;;;;;;;2.20;1.80;;;11.60;99.90;;;;;;5026993;28;20481;-89
2022/01/04 04:53:12;;;;;;;3.40;1.63;;;11.70;99.90;;;;;;5033459;28;20549;-92
2022/01/04 04:55:41;;;;;;;1.63;1.17;;;11.70;99.90;;;;;;5034651;28;20486;-89
2022/01/04 04:58:08;;;;;;;1.73;1.10;;;11.80;99.90;;;;;;5036429;28;20493;-90
2022/01/04 05:00:35;;;;;;;2.70;1.37;;;11.80;99.90;;;;;;5037638;28;20435;-92
2022/01/04 05:03:02;;;;;;;1.53;1.23;;;11.80;99.90;;;;;;5038015;28;20457;-93
2022/01/04 05:05:29;;;;;;;1.90;1.77;;;11.90;99.90;;;;;;5034876;28;20471;-93
2022/01/04 05:07:56;;;;;;;1.77;1.40;;;11.80;99.90;;;;;;5036324;28;20462;-92
2022/01/04 05:10:22;;;;;;;2.00;1.20;;;11.80;99.90;;;;;;5020480;28;20453;-90
2022/01/04 05:12:53;;;;;;;1.10;0.93;;;11.80;99.90;;;;;;5022939;28;20454;-89
2022/01/04 05:15:20;;;;;;;1.30;1.20;;;11.80;99.90;;;;;;5031375;28;20481;-91
2022/01/04 05:17:47;;;;;;;1.50;1.40;;;11.80;99.90;;;;;;5017645;28;20462;-90
2022/01/04 05:20:15;;;;;;;2.37;1.23;;;11.70;99.90;;;;;;5017259;28;20609;-90
2022/01/04 05:22:42;;;;;;;1.20;1.10;;;11.70;99.90;;;;;;5020000;28;20476;-90
2022/01/04 05:25:10;;;;;;;3.20;1.40;;;11.80;99.90;;;;;;5018234;28;20480;-90
2022/01/04 05:27:37;;;;;;;2.57;1.50;;;11.70;99.90;;;;;;5018365;28;20455;-90
2022/01/04 05:30:20;;;;;;;1.20;1.10;;;11.70;99.90;;;;;;5033012;28;20461;-90
2022/01/04 05:32:47;;;;;;;1.40;1.30;;;11.70;99.90;;;;;;5028850;28;20528;-90
2022/01/04 05:35:14;;;;;;;1.93;1.20;;;11.60;99.90;;;;;;5018100;28;21045;-90
2022/01/04 05:37:41;;;;;;;2.40;1.70;;;11.40;99.90;;;;;;5017605;28;20450;-90
2022/01/04 05:40:09;;;;;;;2.30;1.40;;;11.50;99.90;;;;;;5024371;28;20464;-90
2022/01/04 05:42:37;;;;;;;1.80;1.43;;;11.50;99.90;;;;;;5018305;28;20451;-90
2022/01/04 05:45:05;;;;;;;3.37;1.37;;;11.40;99.90;;;;;;5018195;28;21033;-90
2022/01/04 05:47:33;;;;;;;1.33;1.20;;;11.40;99.90;;;;;;5018850;28;20446;-90
2022/01/04 05:50:00;;;;;;;1.80;1.40;;;11.40;99.90;;;;;;5018246;28;20541;-90
2022/01/04 05:52:27;;;;;;;2.13;1.80;;;11.40;99.90;;;;;;5017137;28;20478;-90
2022/01/04 05:54:54;;;;;;;2.53;1.60;;;11.40;99.90;;;;;;5017507;28;20458;-91
2022/01/04 05:57:21;;;;;;;4.77;1.73;;;11.40;99.90;;;;;;5046494;23;20496;-83
2022/01/04 05:59:48;;;;;;;5.50;1.77;;;11.40;99.90;;;;;;5023308;28;20450;-84
2022/01/04 06:02:14;;;;;;;1.60;1.13;;;11.30;99.90;;;;;;5023170;28;20435;-84
2022/01/04 06:04:43;;;;;;;3.53;1.80;;;11.30;99.90;;;;;;5025082;28;20504;-85
2022/01/04 06:07:10;;;;;;;1.47;1.20;;;11.40;99.90;;;;;;5022508;28;21002;-83
2022/01/04 06:09:43;;;;;;;1.83;1.43;;;11.40;99.90;;;;;;5019080;28;20458;-85
2022/01/04 06:14:52;;;;;;;2.30;1.37;;;11.40;99.90;;;;;;5020228;28;20422;-83
2022/01/04 06:17:20;;;;;;;1.93;1.73;;;11.40;99.90;;;;;;5025482;28;20881;-83
2022/01/04 06:19:48;;;;;;;1.90;1.40;;;11.40;99.90;;;;;;5029562;28;20453;-84
2022/01/04 06:22:15;;;;;;;1.87;1.30;;;11.30;99.90;;;;;;5023967;28;20445;-83
2022/01/04 06:24:41;;;;;;;1.93;1.63;;;11.20;99.90;;;;;;5033075;28;20438;-83
2022/01/04 06:27:09;;;;;;;2.37;1.90;;;11.20;99.90;;;;;;5024891;28;21032;-84
2022/01/04 06:29:38;;;;;;;3.03;1.80;;;11.20;99.90;;;;;;5019743;28;20452;-84
2022/01/04 06:32:06;;;;;;;4.63;2.30;;;11.30;99.90;;;;;;5020079;28;20455;-85
2022/01/04 06:34:33;;;;;;;3.40;1.97;;;11.20;99.90;;;;;;5019373;28;20454;-84
2022/01/04 06:37:01;;;;;;;3.23;2.37;;;11.20;99.90;;;;;;5018069;28;20462;-84
2022/01/04 06:39:28;;;;;;;4.23;2.93;;;11.20;99.90;;;;;;5018502;28;20508;-85
2022/01/04 06:41:55;;;;;;;2.87;2.40;;;11.10;99.90;;;;;;5028108;28;20449;-84
2022/01/04 06:44:21;;;;;;;4.40;2.60;;;11.10;99.90;;;;;;5019191;28;20458;-85
2022/01/04 06:46:48;;;;;;;2.70;2.43;;;11.10;99.90;;;;;;5015996;28;21037;-84
2022/01/04 06:49:16;;;;;;;3.30;2.30;;;11.10;99.90;;;;;;5016228;28;20473;-84
2022/01/04 06:51:43;;;;;;;5.20;2.90;;;11.10;99.90;;;;;;5015499;28;20450;-84
2022/01/04 06:54:13;;;;;;;4.50;2.37;;;11.10;99.90;;;;;;5028565;28;20484;-82
2022/01/04 06:56:40;;;;;;;4.23;2.80;;;11.10;99.90;;;;;;5033683;28;20488;-83
2022/01/04 06:59:08;;;;;;;3.33;2.40;;;11.10;99.90;;;;;;5022782;28;20445;-85
2022/01/04 07:01:36;;;;;;;4.73;2.17;;;11.10;99.90;;;;;;5020749;28;20447;-84
2022/01/04 07:04:03;;;;;;;9.37;1.90;;;11.10;99.90;;;;;;5020343;28;20452;-83
2022/01/04 07:06:30;;;;;;;2.60;2.17;;;11.10;99.90;;;;;;5019873;28;20474;-84
2022/01/04 07:08:56;;;;;;;2.87;2.00;;;11.10;99.90;;;;;;5021811;28;20449;-84
2022/01/04 07:11:24;;;;;;;3.37;2.73;;;11.10;99.90;;;;;;5018333;28;20529;-85
2022/01/04 07:13:51;;;;;;;3.73;1.97;;;11.10;99.90;;;;;;5018986;28;20484;-86
2022/01/04 07:16:18;;;;;;;2.40;1.40;;;11.10;99.90;;;;;;5019072;28;20466;-84
2022/01/04 07:18:48;;;;;;;3.80;1.93;;;11.10;99.90;;;;;;5019329;28;20454;-85
2022/01/04 07:21:15;;;;;;;1.60;1.37;;;11.10;99.90;;;;;;5018514;28;20537;-83
2022/01/04 07:23:42;;;;;;;1.80;1.40;;;11.20;99.90;;;;;;5014554;28;20462;-84
2022/01/04 07:26:11;;;;;;;2.50;1.80;;;11.20;99.90;;;;;;5011918;28;20466;-84
2022/01/04 07:28:40;;;;;;;4.50;1.50;;;11.20;99.90;;;;;;5013687;28;20453;-84
2022/01/04 07:31:07;;;;;;;2.20;1.80;;;11.30;99.90;;;;;;5013651;28;20529;-84
2022/01/04 07:33:34;;;;;;;3.67;2.50;;;11.30;99.90;;;;;;5013802;28;20480;-86
2022/01/04 07:36:00;;;;;;;3.00;2.00;;;11.30;99.90;;;;;;5019887;28;20484;-86
2022/01/04 07:38:28;;;;;;;5.07;2.07;;;11.20;99.90;;;;;;5033522;28;20483;-84
2022/01/04 07:40:54;;;;;;;2.30;2.10;;;11.20;99.90;;;;;;5033230;28;20430;-82
2022/01/04 07:43:21;;;;;;;3.90;2.60;;;11.30;99.90;;;;;;5019987;28;20802;-84
2022/01/04 07:45:49;;;;;;;2.07;1.50;;;11.30;99.90;;;;;;5014679;28;20489;-85
2022/01/04 07:48:16;;;;;;;2.43;1.63;;;11.30;99.90;;;;;;5015448;28;20457;-84
2022/01/04 07:50:42;;;;;;;1.70;1.37;;;11.30;99.90;;;;;;5024079;28;20438;-82
2022/01/04 07:53:09;;;;;;;3.40;1.60;;;11.40;99.90;;;;;;5022711;28;20477;-83
2022/01/04 07:55:36;;;;;;;3.20;1.50;;;11.40;99.90;;;;;;5015828;28;20452;-85
2022/01/04 07:58:03;;;;;;;3.00;1.40;;;11.40;99.90;;;;;;5015069;28;20456;-83
2022/01/04 08:00:29;;;;;;;1.93;1.73;;;11.40;99.90;;;;;;5014512;28;20517;-86
2022/01/04 08:02:58;;;;;;;3.40;1.60;;;11.50;99.90;;;;;;5014315;28;20831;-86
2022/01/04 08:05:25;;;;;;;3.20;1.50;;;11.50;99.90;;;;;;5015595;28;20977;-86
2022/01/04 08:07:52;;;;;;;2.00;1.00;;;11.70;99.90;;;;;;5017888;28;20469;-87
2022/01/04 08:10:19;;;;;;;1.50;1.37;;;12.00;99.90;;;;;;5019493;28;20960;-87
2022/01/04 08:12:46;;;;;;;1.73;1.63;;;12.10;99.90;;;;;;5017083;28;20488;-86
2022/01/04 08:15:13;;;;;;;1.80;1.50;;;12.20;99.90;;;;;;5016039;28;20438;-87
2022/01/04 08:17:40;;;;;;;2.50;1.27;;;12.30;99.90;;;;;;5014275;28;20469;-86
2022/01/04 08:20:10;;;;;;;1.93;1.47;;;12.30;99.90;;;;;;5015147;28;20454;-87
2022/01/04 08:22:36;;;;;;;1.20;1.00;;;12.40;99.90;;;;;;5014971;28;20967;-87
2022/01/04 08:25:06;;;;;;;1.63;1.30;;;12.50;99.90;;;;;;5015711;28;20959;-88
2022/01/04 08:27:33;;;;;;;2.17;1.33;;;12.60;99.90;;;;;;5015094;28;20478;-87
2022/01/04 08:30:00;;;;;;;1.40;1.20;;;12.70;99.90;;;;;;5014466;28;20798;-88
2022/01/04 08:32:26;;;;;;;4.60;1.13;;;12.70;99.90;;;;;;5015364;28;20511;-87
2022/01/04 08:34:53;;;;;;;2.67;1.20;;;12.70;99.90;;;;;;5019430;28;20454;-87
2022/01/04 08:37:22;;;;;;;2.10;1.23;;;12.70;99.90;;;;;;5032177;28;20511;-87
2022/01/04 08:39:48;;;;;;;1.50;0.80;;;12.70;99.90;;;;;;5019496;28;20509;-87
2022/01/04 08:42:15;;;;;;;0.90;0.80;;;12.80;99.90;;;;;;5030705;28;20492;-88
2022/01/04 08:44:42;;;;;;;1.83;1.40;;;12.70;99.90;;;;;;5035556;28;20444;-88
2022/01/04 08:47:10;;;;;;;2.20;1.10;;;12.80;99.90;;;;;;5022747;28;20470;-88
2022/01/04 08:49:37;;;;;;;2.17;1.50;;;12.80;99.90;;;;;;5025892;28;20460;-88
2022/01/04 08:52:05;;;;;;;1.60;1.30;;;12.80;99.90;;;;;;5016846;28;21105;-88
2022/01/04 08:54:33;;;;;;;1.83;1.30;;;12.80;99.90;;;;;;5014934;28;20480;-88
2022/01/04 08:57:00;;;;;;;1.47;1.17;;;12.90;99.90;;;;;;5017176;28;20507;-89
2022/01/04 08:59:27;;;;;;;1.97;1.63;;;13.00;99.90;;;;;;5018870;28;20458;-88
2022/01/04 09:01:54;;;;;;;1.90;1.30;;;13.00;99.90;;;;;;5017442;28;20505;-89
2022/01/04 09:04:22;;;;;;;1.30;1.20;;;13.00;99.90;;;;;;5017542;28;20448;-89
2022/01/04 09:06:49;;;;;;;1.13;1.03;;;13.00;99.90;;;;;;5016895;28;20475;-88
2022/01/04 09:09:16;;;;;;;2.37;1.27;;;13.10;99.90;;;;;;4997368;28;20465;-88
2022/01/04 09:11:44;;;;;;;1.90;1.73;;;13.10;99.90;;;;;;5009366;28;20957;-89
2022/01/04 09:14:22;;;;;;;2.60;1.60;;;13.20;99.90;;;;;;5016704;28;20479;-88
2022/01/04 09:19:34;;;;;;;2.20;1.07;;;13.30;99.90;;;;;;5017010;28;21025;-87
2022/01/04 09:22:01;;;;;;;6.00;2.00;;;13.40;99.90;;;;;;5017122;28;20475;-88
2022/01/04 09:24:28;;;;;;;2.30;1.33;;;13.40;99.90;;;;;;5017493;28;20940;-88
2022/01/04 09:26:56;;;;;;;2.40;1.67;;;13.40;99.90;;;;;;5021815;28;20470;-89
2022/01/04 09:29:23;;;;;;;2.50;1.20;;;13.40;99.90;;;;;;5035241;28;20478;-90
2022/01/04 09:31:53;;;;;;;1.43;1.03;;;13.40;99.90;;;;;;5023922;28;20448;-89
2022/01/04 09:34:20;;;;;;;2.00;1.80;;;13.40;99.90;;;;;;5035824;28;20484;-88
2022/01/04 09:36:46;;;;;;;1.37;1.03;;;13.30;99.90;;;;;;5030870;28;20462;-89
2022/01/04 09:39:16;;;;;;;3.23;0.90;;;13.20;99.90;;;;;;5020946;28;20448;-88
2022/01/04 09:41:43;;;;;;;1.57;1.20;;;13.10;99.90;;;;;;5018307;28;20469;-88
2022/01/04 09:44:11;;;;;;;2.27;1.47;;;13.00;99.90;;;;;;5017699;28;20444;-88
2022/01/04 09:46:39;;;;;;;2.07;1.60;;;13.00;99.90;;;;;;5016239;28;20472;-89
2022/01/04 09:49:06;;;;;;;1.67;1.23;;;12.90;99.90;;;;;;5016341;28;20893;-88
2022/01/04 09:51:34;;;;;;;3.20;1.70;;;12.80;99.90;;;;;;5017121;28;20447;-87
2022/01/04 09:54:00;;;;;;;1.70;1.30;;;12.80;99.90;;;;;;5016237;28;20488;-88
2022/01/04 09:56:27;;;;;;;1.40;1.30;;;12.80;99.90;;;;;;5015801;28;20476;-88
2022/01/04 09:58:54;;;;;;;1.33;1.17;;;12.80;99.90;;;;;;5015917;28;20454;-87
2022/01/04 10:01:24;;;;;;;2.00;1.43;;;12.90;99.90;;;;;;5016350;28;20837;-87
2022/01/04 10:03:51;;;;;;;1.40;1.27;;;12.90;99.90;;;;;;5029754;28;20834;-88
2022/01/04 10:06:19;;;;;;;2.60;1.23;;;12.80;99.90;;;;;;5021111;28;20474;-88
2022/01/04 10:08:55;;;;;;;1.30;1.20;;;12.90;99.90;;;;;;5015918;28;20462;-87
2022/01/04 10:11:30;;;;;;;2.00;1.80;;;13.00;99.90;;;;;;5015838;28;20474;-89
2022/01/04 10:13:57;;;;;;;1.73;1.17;;;13.00;99.90;;;;;;5029357;28;20471;-87
2022/01/04 10:16:25;;;;;;;1.27;1.17;;;13.00;99.90;;;;;;5026977;28;20471;-87
2022/01/04 10:18:53;;;;;;;1.50;1.40;;;13.00;99.90;;;;;;5016536;28;20451;-88
2022/01/04 10:21:20;;;;;;;1.87;1.20;;;13.10;99.90;;;;;;5016449;28;20949;-88
2022/01/04 10:23:51;;;;;;;2.53;1.40;;;13.10;99.90;;;;;;5022381;28;20444;-87
2022/01/04 10:26:28;;;;;;;1.27;1.17;;;13.10;99.90;;;;;;5018374;28;20505;-87
2022/01/04 10:28:55;;;;;;;2.10;1.90;;;13.20;99.90;;;;;;5015608;28;20553;-87
2022/01/04 10:31:21;;;;;;;2.50;1.80;;;13.20;99.90;;;;;;5015580;28;20857;-87
2022/01/04 10:33:54;;;;;;;1.80;1.70;;;13.20;99.90;;;;;;5015381;28;20495;-86
2022/01/04 10:36:21;;;;;;;2.60;1.50;;;13.30;99.90;;;;;;5015309;28;20993;-87
2022/01/04 10:38:50;;;;;;;1.90;1.40;;;13.40;99.90;;;;;;4995960;28;20453;-87
2022/01/04 10:41:22;;;;;;;1.97;1.30;;;13.50;99.90;;;;;;4995681;28;20843;-87
2022/01/04 10:43:50;;;;;;;3.23;1.37;;;13.50;99.90;;;;;;5001392;28;20515;-88
2022/01/04 10:46:19;;;;;;;1.77;1.50;;;13.70;99.90;;;;;;5016007;28;20455;-88
2022/01/04 10:48:47;;;;;;;3.63;1.70;;;13.70;99.90;;;;;;5015132;28;20452;-87
2022/01/04 10:51:18;;;;;;;3.10;2.33;;;13.80;99.90;;;;;;5027986;28;20450;-87
2022/01/04 10:53:47;;;;;;;2.40;1.70;;;13.80;99.90;;;;;;5015073;28;20479;-87
2022/01/04 10:56:15;;;;;;;3.80;2.20;;;13.70;99.90;;;;;;5018755;28;20487;-87
2022/01/04 10:58:45;;;;;;;6.10;2.27;;;13.70;99.90;;;;;;5018519;28;20461;-84
2022/01/04 11:01:13;;;;;;;3.63;2.20;;;13.60;99.90;;;;;;5015474;28;20451;-84
2022/01/04 11:03:43;;;;;;;4.87;2.13;;;13.50;99.90;;;;;;5020481;28;20455;-87
2022/01/04 11:06:13;;;;;;;2.53;2.10;;;13.40;99.90;;;;;;5025593;28;20473;-87
2022/01/04 11:08:43;;;;;;;2.43;2.20;;;13.40;99.90;;;;;;5022005;28;20451;-86
2022/01/04 11:11:10;;;;;;;2.33;1.87;;;13.40;99.90;;;;;;5024861;28;20451;-86
2022/01/04 11:13:37;;;;;;;2.53;1.80;;;13.40;99.90;;;;;;5024331;28;20489;-85
2022/01/04 11:16:04;;;;;;;2.77;1.90;;;13.50;99.90;;;;;;5010295;28;20478;-87
2022/01/04 11:18:32;;;;;;;2.33;1.40;;;13.60;99.90;;;;;;5024726;28;20469;-85
2022/01/04 11:21:00;;;;;;;3.50;1.80;;;13.70;99.90;;;;;;5027886;28;20446;-86
2022/01/04 11:23:29;;;;;;;3.30;1.70;;;13.80;99.90;;;;;;5025583;28;20468;-87
2022/01/04 11:25:58;;;;;;;1.80;1.57;;;13.90;99.90;;;;;;5018452;28;20501;-88
2022/01/04 11:28:26;;;;;;;5.93;2.10;;;13.80;99.90;;;;;;5029456;28;20460;-86
2022/01/04 11:31:26;;;;;;;2.30;1.47;;;13.80;99.90;;;;;;5034699;28;20426;-86
2022/01/04 11:34:01;;;;;;;2.60;2.00;;;13.70;99.90;;;;;;5008923;28;20575;-86
2022/01/04 11:36:30;;;;;;;3.20;1.60;;;13.60;99.90;;;;;;5022439;28;20495;-86
2022/01/04 11:38:57;;;;;;;2.30;1.83;;;13.60;99.90;;;;;;5024456;28;20482;-87
2022/01/04 11:41:41;;;;;;;2.13;1.50;;;13.50;99.90;;;;;;5031159;28;20455;-85
2022/01/04 11:44:18;;;;;;;3.23;1.80;;;13.50;99.90;;;;;;5019806;28;20444;-85
2022/01/04 11:46:45;;;;;;;2.10;1.70;;;13.50;99.90;;;;;;5019059;28;20472;-86
2022/01/04 11:49:14;;;;;;;3.60;2.00;;;13.50;99.90;;;;;;5020770;28;20541;-86
2022/01/04 11:51:43;;;;;;;3.63;2.20;;;13.50;99.90;;;;;;5023843;28;20452;-85
2022/01/04 11:54:20;;;;;;;2.13;1.50;;;13.50;99.90;;;;;;5025171;28;20480;-86
2022/01/04 11:56:51;;;;;;;4.20;2.20;;;13.40;99.90;;;;;;5025941;28;20510;-86
2022/01/04 11:59:24;;;;;;;5.03;1.60;;;13.30;99.90;;;;;;5027896;28;20457;-87
2022/01/04 12:01:51;;;;;;;3.80;2.50;;;13.30;99.90;;;;;;5024352;28;20452;-87
2022/01/04 12:04:50;;;;;;;1.93;1.63;;;13.30;99.90;;;;;;5023017;28;20455;-87
2022/01/04 12:07:53;;;;;;;2.90;1.80;;;13.30;99.90;;;;;;5021174;28;20468;-87
2022/01/04 12:10:48;;;;;;;2.37;2.00;;;13.30;99.90;;;;;;5027984;28;20451;-87
2022/01/04 12:13:18;;;;;;;3.30;1.90;;;13.40;99.90;;;;;;5024495;28;20446;-86
2022/01/04 12:15:53;;;;;;;2.67;1.90;;;13.50;99.90;;;;;;5021506;28;21014;-87
2022/01/04 12:19:00;;;;;;;5.93;2.00;;;13.40;99.90;;;;;;5019843;28;20440;-85
2022/01/04 12:21:35;;;;;;;2.40;2.10;;;13.40;99.90;;;;;;5019083;28;20458;-85
2022/01/04 12:24:02;;;;;;;7.00;2.17;;;13.30;99.90;;;;;;5021183;28;20445;-87
2022/01/04 12:26:32;;;;;;;4.23;2.37;;;13.20;99.90;;;;;;5020771;28;20467;-85
2022/01/04 12:29:31;;;;;;;3.90;2.50;;;13.10;99.90;;;;;;5017729;28;20448;-87
2022/01/04 12:32:02;;;;;;;4.47;2.87;;;13.10;99.90;;;;;;5022287;28;20452;-85
2022/01/04 12:34:54;;;;;;;2.43;2.03;;;13.00;99.90;;;;;;5021889;28;21003;-88
2022/01/04 12:37:21;;;;;;;4.27;2.27;;;13.00;99.90;;;;;;5021726;28;20476;-85
2022/01/04 12:39:51;;;;;;;3.20;2.27;;;13.00;99.90;;;;;;5021981;28;20450;-86
2022/01/04 12:42:18;;;;;;;2.57;2.00;;;13.00;99.90;;;;;;5023475;28;20462;-88
2022/01/04 12:44:53;;;;;;;3.70;2.47;;;13.00;99.90;;;;;;5022190;28;20450;-87
2022/01/04 12:47:21;;;;;;;2.77;2.00;;;13.00;99.90;;;;;;5022707;28;20481;-87
2022/01/04 12:49:48;;;;;;;3.00;2.00;;;13.00;99.90;;;;;;5022361;28;20482;-87
2022/01/04 12:52:17;;;;;;;2.93;2.60;;;13.10;99.90;;;;;;5021477;28;20813;-86
2022/01/04 12:54:44;;;;;;;3.30;2.17;;;13.10;99.90;;;;;;5024819;28;20495;-86
2022/01/04 12:57:14;;;;;;;3.03;2.17;;;13.10;99.90;;;;;;5029142;28;20477;-85
2022/01/04 12:59:42;;;;;;;3.30;2.33;;;13.10;99.90;;;;;;5023069;28;20443;-87
2022/01/04 13:02:19;;;;;;;2.73;1.80;;;13.10;99.90;;;;;;5021781;28;20451;-87
2022/01/04 13:04:48;;;;;;;2.63;2.10;;;13.00;99.90;;;;;;5031571;28;20509;-86
2022/01/04 13:07:22;;;;;;;4.27;2.10;;;13.00;99.90;;;;;;5028373;28;20480;-85